Time;durP1;ratioP1;P1;durP2;ratioP2;P2;SDS_P1;SDS_P2;PMS_P1;PMS_P2;Temp;Humidity;BMP_temperature;BMP_pressure;BME280_temperature;BME280_humidity;BME280_pressure;Samples;Min_cycle;Max_cycle;Signal;HPM_P1;HPM_P2
2021/07/14 00:00:10;;;;;;;7.70;1.67;;;13.20;99.90;;;;;;5015404;28;20333;-76
2021/07/14 00:02:36;;;;;;;2.63;1.47;;;13.20;99.90;;;;;;5014101;28;20658;-76
2021/07/14 00:05:07;;;;;;;5.23;2.00;;;13.30;99.90;;;;;;5014076;28;20179;-76
2021/07/14 00:07:33;;;;;;;3.87;1.60;;;13.30;99.90;;;;;;5013431;28;20187;-76
2021/07/14 00:09:59;;;;;;;2.93;0.80;;;13.10;99.90;;;;;;5014003;28;20696;-76
2021/07/14 00:12:26;;;;;;;1.60;0.80;;;13.20;99.90;;;;;;5014289;28;20561;-76
2021/07/14 00:17:00;;;;;;;12.97;1.30;;;13.00;99.90;;;;;;5014235;28;20202;-76
2021/07/14 00:23:21;;;;;;;2.23;0.70;;;13.10;99.90;;;;;;5015430;28;20211;-76
2021/07/14 00:25:48;;;;;;;1.50;1.23;;;13.00;99.90;;;;;;5014243;28;20236;-76
2021/07/14 00:28:15;;;;;;;2.53;1.83;;;13.00;99.90;;;;;;5013223;28;20614;-76
2021/07/14 00:30:48;;;;;;;3.93;1.70;;;12.90;99.90;;;;;;5013528;28;20208;-76
2021/07/14 00:33:14;;;;;;;4.20;1.53;;;13.00;99.90;;;;;;5013384;28;20183;-75
2021/07/14 00:35:40;;;;;;;3.33;1.77;;;13.10;99.90;;;;;;5013453;28;20692;-76
2021/07/14 00:38:05;;;;;;;4.80;1.77;;;13.00;99.90;;;;;;5012971;28;20186;-76
2021/07/14 00:40:31;;;;;;;3.67;1.47;;;13.00;99.90;;;;;;5013350;28;20346;-76
2021/07/14 00:42:56;;;;;;;1.73;1.30;;;13.10;99.90;;;;;;5005177;28;20265;-74
2021/07/14 00:45:22;;;;;;;1.33;1.20;;;13.10;99.90;;;;;;4995562;28;20621;-76
2021/07/14 00:47:52;;;;;;;2.37;1.53;;;12.90;99.90;;;;;;5012953;28;20179;-77
2021/07/14 00:50:18;;;;;;;1.20;1.00;;;13.00;99.90;;;;;;5012461;28;20288;-76
2021/07/14 00:52:44;;;;;;;3.10;1.50;;;12.90;99.90;;;;;;5013007;28;20546;-76
2021/07/14 00:55:10;;;;;;;2.43;1.27;;;12.80;99.90;;;;;;5012836;28;20299;-76
2021/07/14 00:57:36;;;;;;;3.47;1.37;;;12.90;99.90;;;;;;5012495;28;20588;-76
2021/07/14 01:00:05;;;;;;;2.67;1.40;;;12.90;99.90;;;;;;5013251;28;20247;-76
2021/07/14 01:02:31;;;;;;;3.97;1.40;;;13.00;99.90;;;;;;5013030;28;20177;-76
2021/07/14 01:05:10;;;;;;;4.63;1.20;;;13.10;99.90;;;;;;5012785;28;20189;-76
2021/07/14 01:07:44;;;;;;;3.37;1.80;;;13.10;99.90;;;;;;5009749;28;20669;-76
2021/07/14 01:10:23;;;;;;;2.10;1.83;;;13.20;99.90;;;;;;4983482;28;20308;-76
2021/07/14 01:12:55;;;;;;;4.33;1.70;;;13.10;99.90;;;;;;5013845;28;20181;-76
2021/07/14 01:15:22;;;;;;;3.87;1.73;;;13.10;99.90;;;;;;5014057;28;20253;-75
2021/07/14 01:18:03;;;;;;;3.47;1.53;;;13.00;99.90;;;;;;4994150;28;20549;-76
2021/07/14 01:20:40;;;;;;;4.20;1.90;;;13.10;99.90;;;;;;5010946;28;20248;-76
2021/07/14 01:23:18;;;;;;;2.27;2.00;;;13.10;99.90;;;;;;5013336;28;20187;-76
2021/07/14 01:25:54;;;;;;;4.80;1.87;;;13.00;99.90;;;;;;5012789;28;20194;-76
2021/07/14 01:28:27;;;;;;;4.07;1.90;;;12.80;99.90;;;;;;4980434;28;20234;-76
2021/07/14 01:30:54;;;;;;;3.83;2.47;;;12.70;99.90;;;;;;5005667;28;20257;-76
2021/07/14 01:33:41;;;;;;;3.10;2.90;;;12.60;99.90;;;;;;4994224;28;20653;-76
2021/07/14 01:36:17;;;;;;;5.60;4.03;;;12.70;99.90;;;;;;5012723;28;20587;-76
2021/07/14 01:38:45;;;;;;;3.83;3.57;;;12.60;99.90;;;;;;5010998;28;20177;-76
2021/07/14 01:41:16;;;;;;;4.10;3.70;;;12.60;99.90;;;;;;5012292;28;20206;-77
2021/07/14 01:43:48;;;;;;;7.97;4.90;;;12.80;99.90;;;;;;4993944;28;20729;-77
2021/07/14 01:46:15;;;;;;;5.53;4.70;;;12.90;99.90;;;;;;4994604;28;20178;-77
2021/07/14 01:48:43;;;;;;;7.80;3.53;;;13.00;99.90;;;;;;5011134;28;20194;-77
2021/07/14 01:51:11;;;;;;;3.40;3.10;;;13.10;99.90;;;;;;4995301;28;20608;-76
2021/07/14 01:53:38;;;;;;;5.80;3.70;;;13.20;99.90;;;;;;4993643;28;20172;-76
2021/07/14 01:56:09;;;;;;;8.17;3.70;;;13.30;99.90;;;;;;5011328;28;20183;-76
2021/07/14 01:58:37;;;;;;;5.43;4.53;;;13.20;99.90;;;;;;5005048;28;20542;-77
2021/07/14 02:01:05;;;;;;;5.13;3.87;;;13.20;99.90;;;;;;4997500;28;20201;-76
2021/07/14 02:06:00;;;;;;;3.70;3.40;;;13.10;99.90;;;;;;4995419;28;20589;-76
2021/07/14 02:08:27;;;;;;;4.13;3.83;;;13.10;99.90;;;;;;4991741;28;20802;-76
2021/07/14 02:10:54;;;;;;;4.27;3.73;;;13.20;99.90;;;;;;4978886;28;20219;-77
2021/07/14 02:13:22;;;;;;;5.20;4.03;;;13.20;99.90;;;;;;4995197;28;20175;-77
2021/07/14 02:15:56;;;;;;;5.30;4.40;;;13.20;99.90;;;;;;5032175;22;20214;-76
2021/07/14 02:18:25;;;;;;;5.07;4.40;;;13.10;99.90;;;;;;4997618;28;20190;-76
2021/07/14 02:20:57;;;;;;;6.00;5.40;;;13.00;99.90;;;;;;4992921;28;20232;-76
2021/07/14 02:23:23;;;;;;;6.23;5.63;;;12.90;99.90;;;;;;5011033;28;20186;-76
2021/07/14 02:25:49;;;;;;;6.50;5.50;;;12.90;99.90;;;;;;4995422;28;20538;-76
2021/07/14 02:28:14;;;;;;;7.70;6.07;;;12.90;99.90;;;;;;5011752;28;20257;-75
2021/07/14 02:30:40;;;;;;;7.20;6.60;;;12.80;99.90;;;;;;5012219;28;20189;-75
2021/07/14 02:33:09;;;;;;;6.40;5.80;;;12.90;99.90;;;;;;5012967;28;20194;-76
2021/07/14 02:35:40;;;;;;;8.93;6.60;;;13.00;99.90;;;;;;5013271;28;20287;-75
2021/07/14 02:38:24;;;;;;;6.90;6.30;;;12.90;99.90;;;;;;5012767;28;20178;-76
2021/07/14 02:41:04;;;;;;;9.50;7.07;;;12.90;99.90;;;;;;4995470;28;20179;-75
2021/07/14 02:43:34;;;;;;;8.03;6.83;;;12.90;99.90;;;;;;4994907;28;20194;-76
2021/07/14 02:46:04;;;;;;;8.73;7.20;;;12.90;99.90;;;;;;5012929;28;20203;-75
2021/07/14 02:48:31;;;;;;;8.10;7.30;;;12.90;99.90;;;;;;5012708;28;20256;-75
2021/07/14 02:50:59;;;;;;;7.23;6.53;;;12.90;99.90;;;;;;5013003;28;20719;-76
2021/07/14 02:53:30;;;;;;;7.40;6.30;;;13.00;99.90;;;;;;5012830;28;20189;-75
2021/07/14 02:56:00;;;;;;;7.00;6.40;;;13.20;99.90;;;;;;4995181;28;20205;-75
2021/07/14 02:58:30;;;;;;;6.97;5.63;;;13.20;99.90;;;;;;5010713;28;20598;-75
2021/07/14 03:00:57;;;;;;;6.77;6.27;;;13.20;99.90;;;;;;5010824;28;20647;-76
2021/07/14 03:03:24;;;;;;;5.97;5.47;;;13.10;99.90;;;;;;5010505;28;20179;-76
2021/07/14 03:05:55;;;;;;;6.03;5.47;;;13.20;99.90;;;;;;5010085;28;20214;-76
2021/07/14 03:08:28;;;;;;;5.57;5.13;;;13.20;99.90;;;;;;5009880;28;20263;-76
2021/07/14 03:10:58;;;;;;;5.87;5.37;;;13.30;99.90;;;;;;5010040;28;20178;-76
2021/07/14 03:13:26;;;;;;;6.70;5.10;;;13.30;99.90;;;;;;5011099;28;20185;-75
2021/07/14 03:15:53;;;;;;;7.97;4.63;;;13.30;99.90;;;;;;5014443;28;20210;-75
2021/07/14 03:18:22;;;;;;;4.57;4.17;;;13.30;99.90;;;;;;5015000;28;20183;-75
2021/07/14 03:20:51;;;;;;;4.97;4.57;;;13.30;99.90;;;;;;5013864;28;20194;-75
2021/07/14 03:23:17;;;;;;;4.97;4.57;;;13.30;99.90;;;;;;4979263;28;20198;-75
2021/07/14 03:25:43;;;;;;;4.53;4.13;;;13.30;99.90;;;;;;4976818;28;20207;-75
2021/07/14 03:28:10;;;;;;;4.97;4.47;;;13.30;99.90;;;;;;5010199;28;20224;-75
2021/07/14 03:30:36;;;;;;;5.27;4.77;;;13.40;99.90;;;;;;5014278;28;20179;-75
2021/07/14 03:33:03;;;;;;;5.00;3.80;;;13.40;99.90;;;;;;5014161;28;20175;-75
2021/07/14 03:35:29;;;;;;;4.20;3.80;;;13.40;99.90;;;;;;5014043;28;20234;-75
2021/07/14 03:37:57;;;;;;;4.80;4.40;;;13.20;99.90;;;;;;5013696;28;20177;-75
2021/07/14 03:40:23;;;;;;;4.63;4.10;;;13.10;99.90;;;;;;5014047;28;20187;-75
2021/07/14 03:42:52;;;;;;;8.33;4.67;;;13.10;99.90;;;;;;5015219;28;20178;-75
2021/07/14 03:45:18;;;;;;;4.93;4.50;;;13.00;99.90;;;;;;4997488;28;20199;-76
2021/07/14 03:47:44;;;;;;;5.23;4.70;;;12.90;99.90;;;;;;5014836;28;20206;-74
2021/07/14 03:50:11;;;;;;;5.10;4.70;;;12.90;99.90;;;;;;4996176;28;20206;-76
2021/07/14 03:52:38;;;;;;;7.83;4.73;;;12.90;99.90;;;;;;5014041;28;20187;-75
2021/07/14 03:55:08;;;;;;;5.20;4.70;;;12.90;99.90;;;;;;5005625;28;20251;-75
2021/07/14 03:57:34;;;;;;;4.93;4.50;;;12.90;99.90;;;;;;5010010;28;20741;-75
2021/07/14 04:00:00;;;;;;;4.90;4.30;;;13.00;99.90;;;;;;5013713;28;20191;-75
2021/07/14 04:02:26;;;;;;;5.20;4.80;;;13.00;99.90;;;;;;5011015;28;20191;-75
2021/07/14 04:04:52;;;;;;;5.57;4.60;;;13.10;99.90;;;;;;5012677;28;20286;-75
2021/07/14 04:07:25;;;;;;;5.43;4.93;;;13.20;99.90;;;;;;5010780;28;20270;-75
2021/07/14 04:09:50;;;;;;;6.63;4.67;;;13.20;99.90;;;;;;4995491;28;20286;-75
2021/07/14 04:12:16;;;;;;;5.60;4.47;;;13.20;99.90;;;;;;4995905;28;20366;-75
2021/07/14 04:14:43;;;;;;;4.37;3.57;;;13.30;99.90;;;;;;5012716;28;20550;-75
2021/07/14 04:17:09;;;;;;;6.53;5.07;;;13.40;99.90;;;;;;5011195;28;20201;-75
2021/07/14 04:19:36;;;;;;;5.23;4.53;;;13.40;99.90;;;;;;5011011;28;20257;-76
2021/07/14 04:22:09;;;;;;;7.43;5.27;;;13.40;99.90;;;;;;5015289;28;20552;-75
2021/07/14 04:24:35;;;;;;;5.77;4.70;;;13.20;99.90;;;;;;5014350;28;20187;-75
2021/07/14 04:27:01;;;;;;;4.93;4.47;;;13.30;99.90;;;;;;5014729;28;20228;-75
2021/07/14 04:29:27;;;;;;;5.73;5.23;;;13.40;99.90;;;;;;5014995;28;20205;-75
2021/07/14 04:31:52;;;;;;;5.37;4.97;;;13.50;99.90;;;;;;5013793;28;20551;-75
2021/07/14 04:34:18;;;;;;;7.13;6.43;;;13.40;99.90;;;;;;5014568;28;20189;-75
2021/07/14 04:36:44;;;;;;;6.80;6.20;;;13.30;99.90;;;;;;4995653;28;20211;-76
2021/07/14 04:39:10;;;;;;;6.57;5.97;;;13.20;99.90;;;;;;4987690;28;20207;-75
2021/07/14 04:41:37;;;;;;;8.10;6.83;;;13.20;99.90;;;;;;5010169;28;20195;-76
2021/07/14 04:44:07;;;;;;;7.03;6.33;;;13.20;99.90;;;;;;5015081;28;20213;-75
2021/07/14 04:46:34;;;;;;;7.50;6.53;;;13.30;99.90;;;;;;5015280;28;20715;-74
2021/07/14 04:49:00;;;;;;;6.67;6.07;;;13.40;99.90;;;;;;4997239;28;20569;-75
2021/07/14 04:51:26;;;;;;;5.83;5.07;;;13.50;99.90;;;;;;4997625;28;20214;-75
2021/07/14 04:53:52;;;;;;;6.87;5.27;;;13.60;99.90;;;;;;5014403;28;20186;-75
2021/07/14 04:56:18;;;;;;;8.00;5.53;;;13.60;99.90;;;;;;5016640;28;20195;-76
2021/07/14 04:58:45;;;;;;;4.90;4.40;;;13.60;99.90;;;;;;4977599;28;20188;-75
2021/07/14 05:01:15;;;;;;;6.60;4.73;;;13.50;99.90;;;;;;5010608;28;20186;-76
2021/07/14 05:03:45;;;;;;;6.33;4.53;;;13.50;99.90;;;;;;5025468;28;20187;-75
2021/07/14 05:06:16;;;;;;;4.83;4.43;;;13.50;99.90;;;;;;5013748;28;20256;-76
2021/07/14 05:08:43;;;;;;;5.77;4.47;;;13.50;99.90;;;;;;5014953;28;20317;-75
2021/07/14 05:11:08;;;;;;;6.37;4.40;;;13.60;99.90;;;;;;5010268;28;20185;-75
2021/07/14 05:13:34;;;;;;;6.17;4.70;;;13.60;99.90;;;;;;5016511;28;20558;-81
2021/07/14 05:16:00;;;;;;;5.27;4.77;;;13.70;99.90;;;;;;4997167;28;20233;-82
2021/07/14 05:18:27;;;;;;;5.37;4.77;;;13.60;99.90;;;;;;5015935;28;20186;-80
2021/07/14 05:20:52;;;;;;;4.97;4.53;;;13.60;99.90;;;;;;4999390;28;20183;-81
2021/07/14 05:23:18;;;;;;;5.53;5.03;;;13.50;99.90;;;;;;5015298;28;20190;-80
2021/07/14 05:25:44;;;;;;;7.00;5.07;;;13.60;99.90;;;;;;5017029;28;20262;-80
2021/07/14 05:28:10;;;;;;;5.10;4.70;;;13.60;99.90;;;;;;5016958;28;20183;-80
2021/07/14 05:30:39;;;;;;;5.97;5.10;;;13.50;99.90;;;;;;5016929;28;20187;-80
2021/07/14 05:33:05;;;;;;;5.47;5.07;;;13.60;99.90;;;;;;5016919;28;20668;-80
2021/07/14 05:35:31;;;;;;;5.03;4.63;;;13.60;99.90;;;;;;4998970;28;20195;-80
2021/07/14 05:37:56;;;;;;;5.80;4.67;;;13.60;99.90;;;;;;4999835;28;20186;-81
2021/07/14 05:40:23;;;;;;;6.33;5.20;;;13.70;99.90;;;;;;5016165;28;20308;-80
2021/07/14 05:42:49;;;;;;;5.43;4.93;;;13.70;99.90;;;;;;5016163;28;20672;-80
2021/07/14 05:45:15;;;;;;;6.67;5.97;;;13.70;99.90;;;;;;5016590;28;20214;-80
2021/07/14 05:47:41;;;;;;;5.80;5.30;;;13.80;99.90;;;;;;5016877;28;20190;-81
2021/07/14 05:50:07;;;;;;;6.53;6.00;;;13.80;99.90;;;;;;5016714;28;20689;-82
2021/07/14 05:52:33;;;;;;;6.03;5.53;;;13.80;99.90;;;;;;4999534;28;20569;-79
2021/07/14 05:54:59;;;;;;;6.73;6.13;;;13.80;99.90;;;;;;4998993;28;20201;-81
2021/07/14 05:57:24;;;;;;;10.87;7.23;;;13.70;99.90;;;;;;4998803;28;20179;-80
2021/07/14 05:59:50;;;;;;;6.37;5.80;;;13.80;99.90;;;;;;5016348;28;20250;-79
2021/07/14 06:02:16;;;;;;;6.57;6.03;;;13.70;99.90;;;;;;5016557;28;20182;-80
2021/07/14 06:04:41;;;;;;;6.70;6.10;;;13.70;99.90;;;;;;5016570;28;20201;-81
2021/07/14 06:07:07;;;;;;;7.17;6.53;;;13.70;99.90;;;;;;5016278;28;20312;-80
2021/07/14 06:09:33;;;;;;;6.23;5.63;;;13.80;99.90;;;;;;5016538;28;20201;-80
2021/07/14 06:11:59;;;;;;;7.00;6.30;;;13.90;99.90;;;;;;5016021;28;20174;-80
2021/07/14 06:14:25;;;;;;;6.67;6.10;;;13.90;99.90;;;;;;5015898;28;20179;-80
2021/07/14 06:16:51;;;;;;;6.13;5.50;;;13.90;99.90;;;;;;5015676;28;20589;-80
2021/07/14 06:19:17;;;;;;;6.07;5.57;;;13.90;99.90;;;;;;5016177;28;20229;-81
2021/07/14 06:21:43;;;;;;;5.90;5.40;;;14.00;99.90;;;;;;4998694;28;20179;-80
2021/07/14 06:24:09;;;;;;;5.00;4.60;;;14.00;99.90;;;;;;5016138;28;20605;-80
2021/07/14 06:26:35;;;;;;;6.00;5.40;;;13.80;99.90;;;;;;5015632;28;20212;-80
2021/07/14 06:29:00;;;;;;;5.90;5.33;;;13.90;99.90;;;;;;4997416;28;20245;-79
2021/07/14 06:31:26;;;;;;;4.73;4.33;;;13.90;99.90;;;;;;4998123;28;20228;-81
2021/07/14 06:33:52;;;;;;;6.47;4.37;;;14.00;99.90;;;;;;5015612;28;20175;-80
2021/07/14 06:36:19;;;;;;;4.83;4.33;;;13.90;99.90;;;;;;5015353;28;20654;-80
2021/07/14 06:38:45;;;;;;;5.90;4.53;;;14.00;99.90;;;;;;5015591;28;20197;-79
2021/07/14 06:41:12;;;;;;;4.47;4.03;;;13.90;99.90;;;;;;5015304;28;20179;-79
2021/07/14 06:43:49;;;;;;;5.07;3.83;;;14.00;99.90;;;;;;5016107;28;20252;-80
2021/07/14 06:46:17;;;;;;;5.43;3.90;;;14.10;99.90;;;;;;5014724;28;20560;-80
2021/07/14 06:48:44;;;;;;;4.67;3.70;;;14.10;99.90;;;;;;4999592;28;20568;-80
2021/07/14 06:51:10;;;;;;;3.97;3.57;;;14.10;99.90;;;;;;5019963;28;20257;-80
2021/07/14 06:53:37;;;;;;;3.77;3.30;;;14.20;99.90;;;;;;5020926;28;20163;-80
2021/07/14 06:56:03;;;;;;;3.73;3.43;;;14.20;99.90;;;;;;5019685;28;20657;-80
2021/07/14 06:58:29;;;;;;;3.93;2.73;;;14.20;99.90;;;;;;5020427;28;20186;-80
2021/07/14 07:00:55;;;;;;;3.47;2.97;;;14.20;99.90;;;;;;5001836;28;20282;-78
2021/07/14 07:03:22;;;;;;;8.30;3.33;;;14.20;99.90;;;;;;5020241;28;20179;-79
2021/07/14 07:05:48;;;;;;;3.17;2.70;;;14.20;99.90;;;;;;5022196;28;20206;-80
2021/07/14 07:08:14;;;;;;;2.90;2.70;;;14.30;99.90;;;;;;5005109;28;20560;-80
2021/07/14 07:10:40;;;;;;;3.40;3.10;;;14.30;99.90;;;;;;5019623;28;20178;-79
2021/07/14 07:13:07;;;;;;;3.43;2.50;;;14.20;99.90;;;;;;5027384;28;20171;-79
2021/07/14 07:15:33;;;;;;;3.63;2.87;;;14.20;99.90;;;;;;5000941;28;20211;-81
2021/07/14 07:17:58;;;;;;;5.87;3.00;;;14.20;99.90;;;;;;5001692;28;20171;-80
2021/07/14 07:20:24;;;;;;;4.70;2.77;;;14.30;99.90;;;;;;5025798;28;20175;-80
2021/07/14 07:22:49;;;;;;;3.10;2.70;;;14.30;99.90;;;;;;5020598;28;20175;-79
2021/07/14 07:25:16;;;;;;;4.17;3.00;;;14.30;99.90;;;;;;5005831;28;20211;-80
2021/07/14 07:27:42;;;;;;;3.63;3.30;;;14.30;99.90;;;;;;5019018;28;20179;-80
2021/07/14 07:30:10;;;;;;;4.17;2.77;;;14.30;99.90;;;;;;5020854;28;20187;-79
2021/07/14 07:32:36;;;;;;;4.27;3.80;;;14.40;99.90;;;;;;5020998;28;20282;-81
2021/07/14 07:35:04;;;;;;;3.90;3.40;;;14.50;99.90;;;;;;5021094;28;20196;-79
2021/07/14 07:37:30;;;;;;;4.70;3.43;;;14.50;99.90;;;;;;5019528;28;20175;-80
2021/07/14 07:39:55;;;;;;;3.50;3.20;;;14.60;99.90;;;;;;5018653;28;20531;-80
2021/07/14 07:42:21;;;;;;;3.10;2.80;;;14.60;99.90;;;;;;5001518;28;20183;-80
2021/07/14 07:44:47;;;;;;;4.00;3.10;;;14.60;99.90;;;;;;5019268;28;20615;-79
2021/07/14 07:47:14;;;;;;;2.63;2.43;;;14.50;99.90;;;;;;5019768;28;20661;-79
2021/07/14 07:49:43;;;;;;;3.10;2.80;;;14.50;99.90;;;;;;5019543;28;20257;-80
2021/07/14 07:52:09;;;;;;;3.13;2.83;;;14.50;99.90;;;;;;5022931;28;20163;-80
2021/07/14 07:54:35;;;;;;;2.80;2.60;;;14.50;99.90;;;;;;5008666;28;20168;-81
2021/07/14 07:57:00;;;;;;;3.10;2.73;;;14.50;99.90;;;;;;5021969;28;20177;-80
2021/07/14 07:59:26;;;;;;;2.70;2.50;;;14.50;99.90;;;;;;5021295;28;20704;-80
2021/07/14 08:01:52;;;;;;;3.17;2.70;;;14.50;99.90;;;;;;5020905;28;20183;-79
2021/07/14 08:04:17;;;;;;;3.20;2.90;;;14.50;99.90;;;;;;5005190;28;20186;-79
2021/07/14 08:06:43;;;;;;;3.33;2.70;;;14.30;99.90;;;;;;5005043;28;20198;-79
2021/07/14 08:09:09;;;;;;;3.40;2.70;;;14.30;99.90;;;;;;5019960;28;20252;-79
2021/07/14 08:11:36;;;;;;;2.90;2.40;;;14.30;99.90;;;;;;5020504;28;20202;-80
2021/07/14 08:14:02;;;;;;;3.87;2.87;;;14.30;99.90;;;;;;5022388;28;20179;-79
2021/07/14 08:16:29;;;;;;;4.00;2.67;;;14.30;99.90;;;;;;5021376;28;20221;-79
2021/07/14 08:18:55;;;;;;;3.60;3.17;;;14.50;99.90;;;;;;5020079;28;20171;-80
2021/07/14 08:21:20;;;;;;;3.30;2.43;;;14.60;99.90;;;;;;5019825;28;20584;-80
2021/07/14 08:23:46;;;;;;;3.00;2.70;;;14.60;99.90;;;;;;5018690;28;20186;-80
2021/07/14 08:26:12;;;;;;;2.43;2.23;;;14.70;99.90;;;;;;5006702;28;20526;-80
2021/07/14 08:28:39;;;;;;;3.90;2.90;;;14.60;99.90;;;;;;5018939;28;20241;-80
2021/07/14 08:31:05;;;;;;;3.63;3.20;;;14.60;99.90;;;;;;5004348;28;20179;-79
2021/07/14 08:33:31;;;;;;;3.53;3.10;;;14.60;99.90;;;;;;5004553;28;20618;-81
2021/07/14 08:35:56;;;;;;;5.13;3.57;;;14.60;99.90;;;;;;5021065;28;20689;-80
2021/07/14 08:38:22;;;;;;;3.10;2.90;;;14.70;99.90;;;;;;5004894;28;20186;-81
2021/07/14 08:40:50;;;;;;;5.43;3.30;;;14.70;99.90;;;;;;5018634;28;20665;-82
2021/07/14 08:43:18;;;;;;;4.17;3.60;;;14.60;99.90;;;;;;5019305;28;20167;-79
2021/07/14 08:45:44;;;;;;;3.70;3.40;;;14.80;99.90;;;;;;5017813;28;20214;-79
2021/07/14 08:48:15;;;;;;;4.27;3.80;;;14.80;99.90;;;;;;5018566;28;20191;-80
2021/07/14 08:50:44;;;;;;;3.80;3.50;;;14.80;99.90;;;;;;5018339;28;20171;-79
2021/07/14 08:53:22;;;;;;;3.17;2.83;;;14.90;99.90;;;;;;5019737;28;20175;-80
2021/07/14 08:55:48;;;;;;;3.63;3.33;;;15.00;99.90;;;;;;5009714;28;20206;-80
2021/07/14 08:58:16;;;;;;;3.37;3.17;;;15.10;99.90;;;;;;5018441;28;20544;-80
2021/07/14 09:00:43;;;;;;;4.03;3.50;;;15.20;99.90;;;;;;5006588;28;20238;-80
2021/07/14 09:03:09;;;;;;;5.13;2.90;;;15.20;99.90;;;;;;5021215;28;20171;-80
2021/07/14 09:05:35;;;;;;;3.67;3.10;;;15.30;99.90;;;;;;5004209;28;20199;-80
2021/07/14 09:08:01;;;;;;;3.37;3.07;;;15.30;99.90;;;;;;5020253;28;20172;-79
2021/07/14 09:10:27;;;;;;;3.37;3.07;;;15.40;99.90;;;;;;5001016;28;20210;-80
2021/07/14 09:12:57;;;;;;;3.60;3.03;;;15.30;99.90;;;;;;5000369;28;20198;-80
2021/07/14 09:15:26;;;;;;;3.07;2.87;;;15.30;99.90;;;;;;5017345;28;20215;-81
2021/07/14 09:18:01;;;;;;;3.23;3.03;;;15.30;99.90;;;;;;5018210;28;20242;-80
2021/07/14 09:20:31;;;;;;;5.20;2.87;;;15.30;99.90;;;;;;5019099;28;20706;-80
2021/07/14 09:23:08;;;;;;;4.20;3.80;;;15.40;99.90;;;;;;5018747;28;20183;-80
2021/07/14 09:25:45;;;;;;;4.60;3.47;;;15.40;99.90;;;;;;5019999;28;20222;-81
2021/07/14 09:28:13;;;;;;;3.60;3.30;;;15.40;99.90;;;;;;5017899;28;20277;-80
2021/07/14 09:30:40;;;;;;;4.47;3.00;;;15.50;99.90;;;;;;5002209;28;20187;-80
2021/07/14 09:33:12;;;;;;;3.77;2.90;;;15.50;99.90;;;;;;5007397;28;20187;-79
2021/07/14 09:35:42;;;;;;;3.83;3.20;;;15.50;99.90;;;;;;5007412;28;20195;-79
2021/07/14 09:38:10;;;;;;;3.97;2.97;;;15.60;99.90;;;;;;5018416;28;20268;-80
2021/07/14 09:40:37;;;;;;;3.10;2.80;;;15.70;99.90;;;;;;5019648;28;20179;-80
2021/07/14 09:43:20;;;;;;;5.40;3.37;;;15.70;99.90;;;;;;5023522;28;20175;-80
2021/07/14 09:45:58;;;;;;;3.73;3.30;;;15.80;99.90;;;;;;5020797;28;20262;-81
2021/07/14 09:48:27;;;;;;;3.03;2.63;;;15.80;99.90;;;;;;5005263;28;20543;-80
2021/07/14 09:51:07;;;;;;;3.40;3.10;;;15.80;99.90;;;;;;5019696;28;20221;-81
2021/07/14 09:53:34;;;;;;;2.70;2.50;;;15.90;99.90;;;;;;5016513;28;20536;-81
2021/07/14 09:56:13;;;;;;;3.17;2.90;;;16.00;99.90;;;;;;5003655;28;20279;-80
2021/07/14 09:58:40;;;;;;;3.67;2.67;;;16.00;99.90;;;;;;5018832;28;20182;-80
2021/07/14 10:01:07;;;;;;;4.07;3.00;;;16.10;99.90;;;;;;5018063;28;20196;-80
2021/07/14 10:03:36;;;;;;;2.77;2.43;;;16.10;99.90;;;;;;5029238;28;20242;-80
2021/07/14 10:06:06;;;;;;;4.83;2.70;;;16.10;99.90;;;;;;5001168;28;20206;-81
2021/07/14 10:08:34;;;;;;;3.90;2.90;;;16.20;99.90;;;;;;5018262;28;20196;-80
2021/07/14 10:11:27;;;;;;;3.93;2.80;;;16.30;99.90;;;;;;5000516;28;20183;-80
2021/07/14 10:14:08;;;;;;;4.00;2.77;;;16.30;99.90;;;;;;5021131;28;20188;-80
2021/07/14 10:16:34;;;;;;;2.90;2.70;;;16.40;99.90;;;;;;5009965;28;20215;-80
2021/07/14 10:19:10;;;;;;;2.70;2.50;;;16.50;99.90;;;;;;5026306;28;20595;-80
2021/07/14 10:21:39;;;;;;;3.90;2.40;;;16.50;99.90;;;;;;5025616;28;20607;-80
2021/07/14 10:24:06;;;;;;;3.23;2.93;;;16.60;99.90;;;;;;5022453;28;20196;-81
2021/07/14 10:26:34;;;;;;;3.10;2.80;;;16.60;99.90;;;;;;5017744;28;20288;-79
2021/07/14 10:29:00;;;;;;;3.00;2.60;;;16.60;99.90;;;;;;5021586;28;20565;-80
2021/07/14 10:31:25;;;;;;;4.87;2.73;;;16.70;99.90;;;;;;5019736;28;20174;-73
2021/07/14 10:33:52;;;;;;;2.57;2.37;;;;;;;;;;5018859;28;20171;-73
2021/07/14 10:36:30;;;;;;;3.83;2.70;;;17.10;99.90;;;;;;5016086;28;20281;-73
2021/07/14 10:39:00;;;;;;;3.37;2.50;;;16.90;99.90;;;;;;5001227;28;20180;-73
2021/07/14 10:41:30;;;;;;;3.67;2.33;;;16.90;99.90;;;;;;5018132;28;20191;-74
2021/07/14 10:43:56;;;;;;;3.20;2.20;;;17.00;99.90;;;;;;5010390;28;20192;-74
2021/07/14 10:46:25;;;;;;;3.17;2.07;;;17.00;99.90;;;;;;5002231;28;20296;-74
2021/07/14 10:48:52;;;;;;;2.70;2.33;;;17.10;99.90;;;;;;5012680;28;20196;-74
2021/07/14 10:51:19;;;;;;;2.50;2.30;;;17.30;99.90;;;;;;5007212;28;20189;-73
2021/07/14 10:53:49;;;;;;;3.37;2.20;;;17.40;99.90;;;;;;5003137;28;20175;-75
2021/07/14 10:56:15;;;;;;;2.20;2.10;;;17.50;99.90;;;;;;4997783;28;20272;-75
2021/07/14 10:58:44;;;;;;;2.40;2.07;;;17.60;99.90;;;;;;4990998;28;20194;-76
2021/07/14 11:01:10;;;;;;;2.17;2.00;;;17.70;99.90;;;;;;5005823;28;20202;-76
2021/07/14 11:03:45;;;;;;;2.30;2.13;;;17.70;99.90;;;;;;5007548;28;20186;-75
2021/07/14 11:06:13;;;;;;;2.33;2.00;;;17.80;99.90;;;;;;5005521;28;20268;-74
2021/07/14 11:08:43;;;;;;;2.33;2.13;;;17.80;99.90;;;;;;4987233;28;20211;-75
2021/07/14 11:11:14;;;;;;;3.43;1.80;;;17.90;99.90;;;;;;4990186;28;20518;-74
2021/07/14 11:13:41;;;;;;;3.00;1.90;;;18.00;99.90;;;;;;5002543;28;20174;-74
2021/07/14 11:16:37;;;;;;;4.73;2.10;;;18.20;99.90;;;;;;5007442;28;20590;-74
2021/07/14 11:19:05;;;;;;;2.40;2.20;;;18.10;99.90;;;;;;4982008;28;20199;-75
2021/07/14 11:21:51;;;;;;;3.53;2.40;;;18.30;99.90;;;;;;4987682;28;20662;-75
2021/07/14 11:24:53;;;;;;;2.97;2.40;;;18.50;99.90;;;;;;5005660;28;20177;-75
2021/07/14 11:27:38;;;;;;;3.47;2.37;;;18.60;99.90;;;;;;5010206;28;20547;-75
2021/07/14 11:30:04;;;;;;;2.40;1.90;;;18.70;99.90;;;;;;5002880;28;20215;-74
2021/07/14 11:32:39;;;;;;;3.80;2.10;;;18.90;99.90;;;;;;4989714;28;20175;-75
2021/07/14 11:35:13;;;;;;;3.47;2.40;;;18.90;99.90;;;;;;5009109;28;20696;-75
2021/07/14 11:37:42;;;;;;;2.27;2.17;;;19.10;99.90;;;;;;5011345;28;20687;-77
2021/07/14 11:42:59;;;;;;;2.97;2.50;;;19.00;99.90;;;;;;5010080;28;20183;-74
2021/07/14 11:45:33;;;;;;;6.97;5.30;;;19.20;99.90;;;;;;4993688;28;20606;-74
2021/07/14 11:48:19;;;;;;;2.70;2.50;;;19.50;99.90;;;;;;5014113;28;20236;-74
2021/07/14 11:50:54;;;;;;;2.07;1.97;;;19.70;99.90;;;;;;4992581;28;20190;-73
2021/07/14 11:53:26;;;;;;;2.40;1.87;;;19.60;99.90;;;;;;5008264;28;20167;-74
2021/07/14 11:56:19;;;;;;;2.60;2.40;;;19.80;99.90;;;;;;4987140;28;20203;-74
2021/07/14 11:58:47;;;;;;;2.60;2.40;;;20.00;99.90;;;;;;5004916;28;20195;-74
2021/07/14 12:01:22;;;;;;;2.77;2.13;;;20.00;99.90;;;;;;5008508;28;20207;-74
2021/07/14 12:04:00;;;;;;;2.40;2.20;;;20.10;99.90;;;;;;5003856;28;20260;-74
2021/07/14 12:06:35;;;;;;;3.47;2.47;;;20.40;99.90;;;;;;5004786;28;20199;-73
2021/07/14 12:09:13;;;;;;;4.90;4.50;;;20.50;99.90;;;;;;5009785;28;20195;-74
2021/07/14 12:12:00;;;;;;;2.20;2.10;;;20.60;99.90;;;;;;5009663;28;20193;-74
2021/07/14 12:14:32;;;;;;;2.50;2.30;;;20.60;99.90;;;;;;5011993;28;20175;-75
2021/07/14 12:17:04;;;;;;;3.23;2.23;;;20.70;99.90;;;;;;5005846;28;20341;-74
2021/07/14 12:19:40;;;;;;;2.30;2.20;;;20.60;99.90;;;;;;5009358;28;20205;-73
2021/07/14 12:22:11;;;;;;;2.07;1.93;;;20.60;99.90;;;;;;5011895;28;20693;-74
2021/07/14 12:24:36;;;;;;;2.50;2.30;;;20.70;99.90;;;;;;5009044;28;20185;-74
2021/07/14 12:27:09;;;;;;;4.20;3.50;;;20.80;99.90;;;;;;5010256;28;20187;-75
2021/07/14 12:29:36;;;;;;;2.70;2.50;;;20.90;99.90;;;;;;5011239;28;20196;-75
2021/07/14 12:32:02;;;;;;;1.90;1.80;;;20.90;99.90;;;;;;4995971;28;20171;-74
2021/07/14 12:34:32;;;;;;;2.03;1.60;;;21.10;99.90;;;;;;5009017;28;20245;-74
2021/07/14 12:36:59;;;;;;;1.90;1.80;;;21.10;99.90;;;;;;5011980;28;20655;-74
2021/07/14 12:39:34;;;;;;;2.43;2.23;;;21.20;99.90;;;;;;5008303;28;20548;-74
2021/07/14 12:42:04;;;;;;;2.50;2.00;;;21.30;99.90;;;;;;5010955;28;20182;-73
2021/07/14 12:44:30;;;;;;;2.10;2.00;;;21.40;99.90;;;;;;5010337;28;20175;-74
2021/07/14 12:47:10;;;;;;;2.30;2.00;;;21.40;99.90;;;;;;5009421;28;20195;-74
2021/07/14 12:49:35;;;;;;;2.53;1.90;;;21.20;99.90;;;;;;5006326;28;20209;-74
2021/07/14 12:52:12;;;;;;;2.90;1.73;;;21.10;99.90;;;;;;5012053;28;20183;-75
2021/07/14 12:54:39;;;;;;;1.63;1.53;;;21.20;99.90;;;;;;5003132;28;20273;-73
2021/07/14 12:57:22;;;;;;;1.97;1.77;;;21.30;99.90;;;;;;5007947;28;20179;-73
2021/07/14 13:00:08;;;;;;;3.13;1.80;;;21.10;99.90;;;;;;5006859;28;20593;-74
2021/07/14 13:02:44;;;;;;;1.60;1.40;;;21.20;99.90;;;;;;5012440;28;20185;-74
2021/07/14 13:05:18;;;;;;;1.40;1.10;;;21.30;99.90;;;;;;5007488;28;20226;-77
2021/07/14 13:07:57;;;;;;;2.53;2.00;;;21.30;99.90;;;;;;4992800;28;20175;-74